メインページ
METAR-TAF:

METAR-TAF

空港 :

ラルナカ, キプロス

ラルナカ国際空港

緯度: 34-53N, 経度: 033-38E, 海抜: 2m

現時点の気象観測

当レポートは25分前の06:00(UTC)に作成
北/北西の風 3kt
気温 12°C
湿度 67%
気圧 1018 hPa
視程10km以上
高度2000ftの雲はほとんどない

METAR: LCLK 140600Z 34003KT 9999 FEW020 12/06 Q1018 NOSIG

時間: 08:25 (06:25 UTC)

予報

当レポートは55分前の05:30(UTC)に作成
予報は14日の 06時(UTC)から 15日の 06時(UTC)まで有効
北西の風 7kt
視程10km以上
高度3000ftの雲はほとんどない
14日の 08時(UTC)から 14日の 11時(UTC)まで徐々に
南/南西の風 11kt
14日の 15時(UTC)から 14日の 18時(UTC)まで徐々に
北西の風 7kt

TAF: LCLK 140530Z 1406/1506 32007KT 9999 FEW030 BECMG 1408/1411 21011KT BECMG 1415/1418 31007KT

4,000以上の空港の気象観測と天気予報(METAR報とTAF報)

利用可能な観測所は地図上に黄色い丸と赤い丸で示す。

丸の上にカーソルを重ねると観測所名を参照できる。

次にクリックすると気象観測と天気予報を参照できる。

マップの切り替え:黒色「×」印の緑ボタンをクリックして拡大、「-」印の緑ボタンをクリックして縮小、緑色の三角印をクリックして隣りの地図に切り替え


METAR-TAF: